createdAt,value
2022-09-11T00:00:05.901Z,80.45
2022-09-11T00:02:58.266Z,80.86
2022-09-11T00:05:44.132Z,80.94
2022-09-11T00:08:31.680Z,80.86
2022-09-11T00:11:20.954Z,80.54
2022-09-11T00:14:06.923Z,80.58
2022-09-11T00:16:52.536Z,80.54
2022-09-11T00:19:39.514Z,80.82
2022-09-11T00:22:25.062Z,80.70
2022-09-11T00:25:10.644Z,80.82
2022-09-11T00:27:56.122Z,80.92
2022-09-11T00:30:44.983Z,81.07
2022-09-11T00:33:30.564Z,81.33
2022-09-11T00:36:27.756Z,81.44
2022-09-11T00:39:14.342Z,81.49
2022-09-11T00:42:00.088Z,81.26
2022-09-11T00:44:45.645Z,80.98
2022-09-11T00:47:31.170Z,81.29
2022-09-11T00:50:21.962Z,81.29
2022-09-11T00:53:10.254Z,81.45
2022-09-11T00:56:00.420Z,81.40
2022-09-11T00:58:48.754Z,81.16
2022-09-11T01:01:34.646Z,81.18
2022-09-11T01:04:21.393Z,81.20
2022-09-11T01:07:06.780Z,80.69
2022-09-11T01:09:53.598Z,80.83
2022-09-11T01:12:49.861Z,80.52
2022-09-11T01:15:45.403Z,80.80
2022-09-11T01:18:45.304Z,81.10
2022-09-11T01:21:56.189Z,81.07
2022-09-11T01:25:02.082Z,80.87
2022-09-11T01:27:53.783Z,80.78
2022-09-11T01:30:47.585Z,80.90
2022-09-11T01:34:02.471Z,81.11
2022-09-11T01:36:58.592Z,81.04
2022-09-11T01:39:53.897Z,80.94
2022-09-11T01:42:43.277Z,81.27
2022-09-11T01:45:31.269Z,80.94
2022-09-11T01:48:21.993Z,80.71
2022-09-11T01:51:12.723Z,80.75
2022-09-11T01:54:01.524Z,80.94
2022-09-11T01:56:52.352Z,80.83
2022-09-11T01:59:46.883Z,81.14
2022-09-11T02:02:36.892Z,81.17
2022-09-11T02:05:31.378Z,81.15
2022-09-11T02:08:29.687Z,81.20
2022-09-11T02:11:17.913Z,81.54
2022-09-11T02:14:22.263Z,81.52
2022-09-11T02:17:45.416Z,81.61
2022-09-11T02:20:31.659Z,81.49
2022-09-11T02:23:17.412Z,81.60
2022-09-11T02:26:04.148Z,82.03
2022-09-11T02:28:49.354Z,81.96
2022-09-11T02:31:36.273Z,82.31
2022-09-11T02:34:27.985Z,82.24
2022-09-11T02:37:34.231Z,82.20
2022-09-11T02:40:44.862Z,82.47
2022-09-11T02:43:39.790Z,82.21
2022-09-11T02:46:53.128Z,82.25
2022-09-11T02:49:39.385Z,83.20
2022-09-11T02:52:24.802Z,82.61
2022-09-11T02:55:20.684Z,82.94
2022-09-11T02:58:15.739Z,82.46
2022-09-11T03:01:03.890Z,82.86
2022-09-11T03:03:51.171Z,82.77
2022-09-11T03:06:37.283Z,82.82
2022-09-11T03:09:22.776Z,82.68
2022-09-11T03:12:12.395Z,82.93
2022-09-11T03:14:57.720Z,82.86
2022-09-11T03:17:43.043Z,82.99
2022-09-11T03:20:28.400Z,83.42
2022-09-11T03:23:14.172Z,83.36
2022-09-11T03:26:00.077Z,83.52
2022-09-11T03:28:46.359Z,83.90
2022-09-11T03:31:37.304Z,83.91
2022-09-11T03:34:25.694Z,84.10
2022-09-11T03:37:11.015Z,84.54
2022-09-11T03:39:56.502Z,84.42
2022-09-11T03:42:41.608Z,84.79
2022-09-11T03:45:27.873Z,84.78
2022-09-11T03:48:13.132Z,85.26
2022-09-11T03:50:58.959Z,85.40
2022-09-11T03:53:44.618Z,85.43
2022-09-11T03:56:30.515Z,85.74
2022-09-11T03:59:15.998Z,86.04
2022-09-11T04:02:02.770Z,86.08
2022-09-11T04:04:48.618Z,86.32
2022-09-11T04:07:35.426Z,86.40
2022-09-11T04:10:21.521Z,86.52
2022-09-11T04:13:07.217Z,86.61
2022-09-11T04:15:52.787Z,86.45
2022-09-11T04:18:40.206Z,86.57
2022-09-11T04:21:27.720Z,86.24
2022-09-11T04:24:15.270Z,86.17
2022-09-11T04:27:03.520Z,86.50
2022-09-11T04:29:50.172Z,86.42
2022-09-11T04:32:35.836Z,86.29
2022-09-11T04:35:21.658Z,86.06
2022-09-11T04:38:13.398Z,86.14
2022-09-11T04:41:02.218Z,85.78
2022-09-11T04:43:47.697Z,85.68
2022-09-11T04:46:33.453Z,85.46
2022-09-11T04:49:20.204Z,85.70
2022-09-11T04:52:07.298Z,85.40
2022-09-11T04:54:54.128Z,85.28
2022-09-11T04:57:39.510Z,85.11
2022-09-11T05:00:25.163Z,84.90
2022-09-11T05:03:11.431Z,84.90
2022-09-11T05:05:57.576Z,84.48
2022-09-11T05:08:44.809Z,84.32
2022-09-11T05:11:32.955Z,84.19
2022-09-11T05:14:18.589Z,83.86
2022-09-11T05:17:06.847Z,83.85
2022-09-11T05:19:56.922Z,83.84
2022-09-11T05:22:42.721Z,83.49
2022-09-11T05:25:32.079Z,83.75
2022-09-11T05:28:17.840Z,83.63
2022-09-11T05:31:18.333Z,83.76
2022-09-11T05:34:05.161Z,82.96
2022-09-11T05:36:52.096Z,83.35
2022-09-11T05:39:37.775Z,82.98
2022-09-11T05:42:24.805Z,83.32
2022-09-11T05:45:13.359Z,83.13
2022-09-11T05:47:58.851Z,83.17
2022-09-11T05:50:53.682Z,82.83
2022-09-11T05:53:41.512Z,83.00
2022-09-11T05:56:30.054Z,82.92
2022-09-11T05:59:20.405Z,82.94
2022-09-11T06:02:11.213Z,83.25
2022-09-11T06:05:02.705Z,83.13
2022-09-11T06:07:51.665Z,82.96
2022-09-11T06:10:46.399Z,82.25
2022-09-11T06:13:34.817Z,81.68
2022-09-11T06:16:22.916Z,81.70
2022-09-11T06:19:08.829Z,81.85
2022-09-11T06:21:56.622Z,82.00
2022-09-11T06:24:48.064Z,82.00
2022-09-11T06:27:34.883Z,81.49
2022-09-11T06:30:20.414Z,81.52
2022-09-11T06:33:08.027Z,81.47
2022-09-11T06:36:02.879Z,81.29
2022-09-11T06:38:58.203Z,80.89
2022-09-11T06:41:46.882Z,81.02
2022-09-11T06:44:34.277Z,80.47
2022-09-11T06:47:21.590Z,80.70
2022-09-11T06:50:08.094Z,80.72
2022-09-11T06:53:07.328Z,80.83
2022-09-11T06:56:02.662Z,80.78
2022-09-11T06:58:50.571Z,80.45
2022-09-11T07:01:41.427Z,80.69
2022-09-11T07:04:28.653Z,80.76
2022-09-11T07:07:15.317Z,80.63
2022-09-11T07:10:05.143Z,80.54
2022-09-11T07:12:55.886Z,80.59
2022-09-11T07:15:42.738Z,80.63
2022-09-11T07:18:40.369Z,81.11
2022-09-11T07:21:30.023Z,81.44
2022-09-11T07:24:20.785Z,81.40
2022-09-11T07:27:08.768Z,81.39
2022-09-11T07:29:56.129Z,80.83
2022-09-11T07:32:45.092Z,80.65
2022-09-11T07:35:31.130Z,80.45
2022-09-11T07:38:16.811Z,79.96
2022-09-11T07:41:10.725Z,79.73
2022-09-11T07:44:00.451Z,79.66
2022-09-11T07:46:49.848Z,79.16
2022-09-11T07:49:35.980Z,79.47
2022-09-11T07:52:23.754Z,79.46
2022-09-11T07:55:13.459Z,79.08
2022-09-11T07:58:01.642Z,78.50
2022-09-11T08:00:49.794Z,78.54
2022-09-11T08:03:39.515Z,78.38
2022-09-11T08:06:27.503Z,78.77
2022-09-11T08:09:15.727Z,78.72
2022-09-11T08:12:10.077Z,77.56
2022-09-11T08:14:55.689Z,78.06
2022-09-11T08:17:42.858Z,78.25
2022-09-11T08:20:29.289Z,77.57
2022-09-11T08:23:18.101Z,77.67
2022-09-11T08:26:12.085Z,77.73
2022-09-11T08:29:00.890Z,77.90
2022-09-11T08:31:50.590Z,78.68
2022-09-11T08:34:38.258Z,78.83
2022-09-11T08:37:23.891Z,78.20
2022-09-11T08:40:11.754Z,77.69
2022-09-11T08:43:01.800Z,77.74
2022-09-11T08:45:48.945Z,77.06
2022-09-11T08:49:02.262Z,76.71
2022-09-11T08:51:58.304Z,77.30
2022-09-11T08:54:47.608Z,77.21
2022-09-11T08:57:49.183Z,76.83
2022-09-11T09:00:46.785Z,75.42
2022-09-11T09:04:13.506Z,74.71
2022-09-11T09:07:32.156Z,74.15
2022-09-11T09:10:45.851Z,74.24
2022-09-11T09:14:07.656Z,73.99
2022-09-11T09:17:02.451Z,73.60
2022-09-11T09:20:01.791Z,72.78
2022-09-11T09:22:59.611Z,73.16
2022-09-11T09:25:49.088Z,73.41
2022-09-11T09:28:43.279Z,73.71
2022-09-11T09:31:33.568Z,73.19
2022-09-11T09:34:21.852Z,72.73
2022-09-11T09:37:21.972Z,72.75
2022-09-11T09:40:16.619Z,71.73
2022-09-11T09:43:18.085Z,70.97
2022-09-11T09:46:15.884Z,71.09
2022-09-11T09:49:01.441Z,69.84
2022-09-11T09:51:48.442Z,69.74
2022-09-11T09:54:36.499Z,70.54
2022-09-11T09:57:27.049Z,73.09
2022-09-11T10:00:15.933Z,72.29
2022-09-11T10:03:19.128Z,72.47
2022-09-11T10:06:05.430Z,68.89
2022-09-11T10:09:00.123Z,67.80
2022-09-11T10:12:07.430Z,67.65
2022-09-11T10:15:01.297Z,67.26
2022-09-11T10:17:47.085Z,67.34
2022-09-11T10:20:33.065Z,67.04
2022-09-11T10:23:26.492Z,66.10
2022-09-11T10:26:21.430Z,65.58
2022-09-11T10:29:16.102Z,67.96
2022-09-11T10:32:03.423Z,69.88
2022-09-11T10:34:49.032Z,70.40
2022-09-11T10:37:34.614Z,71.08
2022-09-11T10:40:23.140Z,72.27
2022-09-11T10:43:25.087Z,73.52
2022-09-11T10:46:30.351Z,74.66
2022-09-11T10:49:22.992Z,75.49
2022-09-11T10:52:08.339Z,74.99
2022-09-11T10:55:15.928Z,75.88
2022-09-11T10:58:11.107Z,76.08
2022-09-11T11:00:56.784Z,77.31
2022-09-11T11:03:43.252Z,78.98
2022-09-11T11:06:57.794Z,78.93
2022-09-11T11:10:15.740Z,78.71
2022-09-11T11:13:30.835Z,76.64
2022-09-11T11:16:33.746Z,75.35
2022-09-11T11:19:46.477Z,74.90
2022-09-11T11:22:44.791Z,74.72
2022-09-11T11:25:51.090Z,75.01
2022-09-11T11:28:58.694Z,74.61
2022-09-11T11:32:02.230Z,74.03
2022-09-11T11:35:01.598Z,75.32
2022-09-11T11:37:50.111Z,75.61
2022-09-11T11:40:42.871Z,76.45
2022-09-11T11:43:32.907Z,75.68
2022-09-11T11:46:35.589Z,76.10
2022-09-11T11:49:27.270Z,76.82
2022-09-11T11:52:30.109Z,76.51
2022-09-11T11:55:21.385Z,77.27
2022-09-11T11:58:34.574Z,78.08
2022-09-11T12:01:28.908Z,78.56
2022-09-11T12:04:40.553Z,78.58
2022-09-11T12:07:32.745Z,78.87
2022-09-11T12:10:22.847Z,79.38
2022-09-11T12:13:17.334Z,79.68
2022-09-11T12:16:27.969Z,79.39
2022-09-11T12:19:24.168Z,79.73
2022-09-11T12:22:12.411Z,80.59
2022-09-11T12:24:59.215Z,80.97
2022-09-11T12:27:51.903Z,81.07
2022-09-11T12:31:06.059Z,80.17
2022-09-11T12:33:54.599Z,79.70
2022-09-11T12:36:55.269Z,79.67
2022-09-11T12:39:59.525Z,80.26
2022-09-11T12:42:48.534Z,78.83
2022-09-11T12:45:38.817Z,78.85
2022-09-11T12:48:38.614Z,78.02
2022-09-11T12:51:33.464Z,76.73
2022-09-11T12:54:39.031Z,77.45
2022-09-11T12:57:35.135Z,76.52
2022-09-11T13:00:34.987Z,76.65
2022-09-11T13:03:24.643Z,76.94
2022-09-11T13:06:13.774Z,76.22
2022-09-11T13:09:03.151Z,75.70
2022-09-11T13:11:52.422Z,75.20
2022-09-11T13:14:56.461Z,74.56
2022-09-11T13:17:50.540Z,74.26
2022-09-11T13:20:36.723Z,74.06
2022-09-11T13:23:22.768Z,74.35
2022-09-11T13:26:16.084Z,73.13
2022-09-11T13:29:01.959Z,72.74
2022-09-11T13:31:47.917Z,72.89
2022-09-11T13:34:36.399Z,73.47
2022-09-11T13:37:50.012Z,72.55
2022-09-11T13:40:47.710Z,73.35
2022-09-11T13:43:58.371Z,73.74
2022-09-11T13:46:51.158Z,73.56
2022-09-11T13:49:39.173Z,74.92
2022-09-11T13:52:28.182Z,76.56
2022-09-11T13:55:19.307Z,77.82
2022-09-11T13:58:23.241Z,78.78
2022-09-11T14:01:14.418Z,79.42
2022-09-11T14:04:00.248Z,80.06
2022-09-11T14:06:46.739Z,79.00
2022-09-11T14:09:32.606Z,78.17
2022-09-11T14:12:20.372Z,78.31
2022-09-11T14:15:20.345Z,76.67
2022-09-11T14:18:12.646Z,77.72
2022-09-11T14:21:00.131Z,77.87
2022-09-11T14:23:50.242Z,77.84
2022-09-11T14:26:35.482Z,77.64
2022-09-11T14:29:29.450Z,78.09
2022-09-11T14:32:24.278Z,78.91
2022-09-11T14:35:11.852Z,79.39
2022-09-11T14:37:57.230Z,80.15
2022-09-11T14:40:49.703Z,80.46
2022-09-11T14:43:38.404Z,80.83
2022-09-11T14:46:24.042Z,81.19
2022-09-11T14:49:10.942Z,81.23
2022-09-11T14:52:00.879Z,81.24
2022-09-11T14:54:47.589Z,81.48
2022-09-11T14:57:34.527Z,81.27
2022-09-11T15:00:20.434Z,81.63
2022-09-11T15:03:06.157Z,81.31
2022-09-11T15:05:57.900Z,81.33
2022-09-11T15:08:46.467Z,81.13
2022-09-11T15:11:37.425Z,80.87
2022-09-11T15:14:52.002Z,80.41
2022-09-11T15:17:32.031Z,80.51
2022-09-11T15:20:19.119Z,79.22
2022-09-11T15:23:05.697Z,79.45
2022-09-11T15:26:01.404Z,79.68
2022-09-11T15:28:50.825Z,79.95
2022-09-11T15:31:37.754Z,79.72
2022-09-11T15:34:23.826Z,79.73
2022-09-11T15:37:09.160Z,79.72
2022-09-11T15:39:54.571Z,79.91
2022-09-11T15:42:39.978Z,79.99
2022-09-11T15:45:26.109Z,79.74
2022-09-11T15:48:12.342Z,79.36
2022-09-11T15:51:02.060Z,78.94
2022-09-11T15:53:48.542Z,78.93
2022-09-11T15:56:35.947Z,79.12
2022-09-11T15:59:21.801Z,79.38
2022-09-11T16:02:09.153Z,79.12
2022-09-11T16:04:54.845Z,79.09
2022-09-11T16:07:41.177Z,79.54
2022-09-11T16:10:27.880Z,79.43
2022-09-11T16:13:13.563Z,79.80
2022-09-11T16:16:04.194Z,79.91
2022-09-11T16:18:50.326Z,79.41
2022-09-11T16:21:35.985Z,79.83
2022-09-11T16:24:21.947Z,79.28
2022-09-11T16:27:10.261Z,79.34
2022-09-11T16:33:02.331Z,79.48
2022-09-11T16:36:06.865Z,78.81
2022-09-11T16:38:52.690Z,78.77
2022-09-11T16:41:38.768Z,78.91
2022-09-11T16:44:24.404Z,78.81
2022-09-11T16:47:09.893Z,79.02
2022-09-11T16:50:10.853Z,79.33
2022-09-11T16:52:56.888Z,79.55
2022-09-11T16:55:42.565Z,79.75
2022-09-11T16:58:29.624Z,80.03
2022-09-11T17:01:18.380Z,80.12
2022-09-11T17:04:04.123Z,79.87
2022-09-11T17:06:49.484Z,80.02
2022-09-11T17:09:35.410Z,80.53
2022-09-11T17:12:22.282Z,80.67
2022-09-11T17:15:08.577Z,80.82
2022-09-11T17:17:55.321Z,81.32
2022-09-11T17:20:56.908Z,81.29
2022-09-11T17:23:42.460Z,81.23
2022-09-11T17:26:28.242Z,81.30
2022-09-11T17:29:13.687Z,81.91
2022-09-11T17:32:17.112Z,82.09
2022-09-11T17:35:05.317Z,82.13
2022-09-11T17:37:51.064Z,82.41
2022-09-11T17:40:36.699Z,81.93
2022-09-11T17:43:22.688Z,76.16
2022-09-11T17:46:14.981Z,70.16
2022-09-11T17:49:00.631Z,72.54
2022-09-11T17:51:46.233Z,73.29
2022-09-11T17:54:31.499Z,73.70
2022-09-11T17:57:16.969Z,74.76
2022-09-11T18:00:04.482Z,74.91
2022-09-11T18:02:58.933Z,74.86
2022-09-11T18:05:45.111Z,74.95
2022-09-11T18:08:33.241Z,76.04
2022-09-11T18:11:19.197Z,76.77
2022-09-11T18:14:05.734Z,77.61
2022-09-11T18:16:51.276Z,77.94
2022-09-11T18:19:38.829Z,77.99
2022-09-11T18:22:24.451Z,78.12
2022-09-11T18:25:10.514Z,78.35
2022-09-11T18:27:56.726Z,78.72
2022-09-11T18:30:43.243Z,78.96
2022-09-11T18:33:28.992Z,79.36
2022-09-11T18:36:14.510Z,79.76
2022-09-11T18:39:02.039Z,79.89
2022-09-11T18:41:48.963Z,79.63
2022-09-11T18:44:34.486Z,79.92
2022-09-11T18:47:20.794Z,80.08
2022-09-11T18:50:07.093Z,80.66
2022-09-11T18:52:53.104Z,80.51
2022-09-11T18:55:38.927Z,80.47
2022-09-11T18:58:24.721Z,80.32
2022-09-11T19:01:12.776Z,80.11
2022-09-11T19:04:00.057Z,80.11
2022-09-11T19:06:46.452Z,79.63
2022-09-11T19:09:31.983Z,79.06
2022-09-11T19:12:17.373Z,78.72
2022-09-11T19:15:04.281Z,77.94
2022-09-11T19:17:50.807Z,77.06
2022-09-11T19:20:37.336Z,76.56
2022-09-11T19:23:23.295Z,76.42
2022-09-11T19:26:12.392Z,76.43
2022-09-11T19:29:00.244Z,76.10
2022-09-11T19:31:46.805Z,75.74
2022-09-11T19:34:37.285Z,75.18
2022-09-11T19:37:24.480Z,75.48
2022-09-11T19:40:12.019Z,75.21
2022-09-11T19:42:59.816Z,75.21
2022-09-11T19:45:46.242Z,75.04
2022-09-11T19:48:33.981Z,75.24
2022-09-11T19:51:23.159Z,75.20
2022-09-11T19:54:10.718Z,75.30
2022-09-11T19:56:57.303Z,75.17
2022-09-11T19:59:43.111Z,75.05
2022-09-11T20:02:28.666Z,75.09
2022-09-11T20:05:14.176Z,74.73
2022-09-11T20:08:00.506Z,74.92
2022-09-11T20:10:47.169Z,73.84
2022-09-11T20:13:34.752Z,74.05
2022-09-11T20:16:23.615Z,74.33
2022-09-11T20:19:10.414Z,74.75
2022-09-11T20:21:56.096Z,74.57
2022-09-11T20:24:41.419Z,74.79
2022-09-11T20:27:27.478Z,75.11
2022-09-11T20:30:13.239Z,75.70
2022-09-11T20:33:00.578Z,76.33
2022-09-11T20:35:46.616Z,76.67
2022-09-11T20:38:32.510Z,76.81
2022-09-11T20:41:19.104Z,76.88
2022-09-11T20:44:04.709Z,77.04
2022-09-11T20:46:51.149Z,77.32
2022-09-11T20:49:36.399Z,77.76
2022-09-11T20:52:21.826Z,78.36
2022-09-11T20:55:07.815Z,78.57
2022-09-11T20:57:53.441Z,78.58
2022-09-11T21:00:39.925Z,78.67
2022-09-11T21:03:26.601Z,78.61
2022-09-11T21:06:12.130Z,78.84
2022-09-11T21:09:00.468Z,77.92
2022-09-11T21:11:46.787Z,77.73
2022-09-11T21:14:32.286Z,77.73
2022-09-11T21:17:18.109Z,77.76
2022-09-11T21:20:03.896Z,77.77
2022-09-11T21:22:49.728Z,77.88
2022-09-11T21:25:40.290Z,77.58
2022-09-11T21:28:26.099Z,77.21
2022-09-11T21:31:13.145Z,76.33
2022-09-11T21:33:59.067Z,76.92
2022-09-11T21:36:44.759Z,77.30
2022-09-11T21:39:30.213Z,77.18
2022-09-11T21:42:15.856Z,76.76
2022-09-11T21:45:01.259Z,76.86
2022-09-11T21:47:46.776Z,77.19
2022-09-11T21:50:32.495Z,77.01
2022-09-11T21:53:18.895Z,77.25
2022-09-11T21:56:05.339Z,77.10
2022-09-11T21:58:51.507Z,77.29
2022-09-11T22:01:37.270Z,77.53
2022-09-11T22:04:22.503Z,77.94
2022-09-11T22:07:08.202Z,77.90
2022-09-11T22:09:54.078Z,77.93
2022-09-11T22:12:39.450Z,78.41
2022-09-11T22:15:24.759Z,78.85
2022-09-11T22:18:10.556Z,79.65
2022-09-11T22:21:00.261Z,80.14
2022-09-11T22:23:45.851Z,80.67
2022-09-11T22:26:32.505Z,81.28
2022-09-11T22:29:18.155Z,80.83
2022-09-11T22:32:05.105Z,80.88
2022-09-11T22:34:50.672Z,80.71
2022-09-11T22:37:35.996Z,81.04
2022-09-11T22:40:21.846Z,80.72
2022-09-11T22:43:08.132Z,80.98
2022-09-11T22:45:53.695Z,81.54
2022-09-11T22:48:39.917Z,81.59
2022-09-11T22:51:25.407Z,82.04
2022-09-11T22:54:13.749Z,82.11
2022-09-11T22:56:59.542Z,82.54
2022-09-11T22:59:48.032Z,82.45
2022-09-11T23:02:33.806Z,82.57
2022-09-11T23:05:38.226Z,82.35
2022-09-11T23:08:44.759Z,82.56
2022-09-11T23:11:30.285Z,82.42
2022-09-11T23:14:15.557Z,83.19
2022-09-11T23:17:01.021Z,82.92
2022-09-11T23:19:46.490Z,82.42
2022-09-11T23:22:31.853Z,82.77
2022-09-11T23:25:17.346Z,83.00
2022-09-11T23:28:02.661Z,83.13
2022-09-11T23:30:48.206Z,82.62
2022-09-11T23:33:33.565Z,82.68
2022-09-11T23:36:18.984Z,83.07
2022-09-11T23:39:04.502Z,83.03
2022-09-11T23:41:50.289Z,82.88
2022-09-11T23:44:35.998Z,82.67
2022-09-11T23:47:21.497Z,82.14
2022-09-11T23:50:07.797Z,82.86
2022-09-11T23:52:53.380Z,83.16
2022-09-11T23:55:42.273Z,83.02
2022-09-11T23:58:27.881Z,82.85
